createdAt,value
2023-03-27T00:01:23.481Z,39.90
2023-03-27T00:06:24.967Z,39.93
2023-03-27T00:11:26.229Z,40.80
2023-03-27T00:16:27.685Z,41.08
2023-03-27T00:21:27.207Z,40.94
2023-03-27T00:26:30.656Z,40.89
2023-03-27T00:31:29.870Z,40.32
2023-03-27T00:36:28.810Z,41.10
2023-03-27T00:41:29.068Z,41.24
2023-03-27T00:46:36.534Z,40.32
2023-03-27T00:51:37.970Z,39.65
2023-03-27T00:56:38.978Z,39.17
2023-03-27T01:01:38.203Z,38.77
2023-03-27T01:06:38.076Z,38.54
2023-03-27T01:11:53.003Z,38.55
2023-03-27T01:17:09.076Z,38.62
2023-03-27T01:22:47.778Z,38.84
2023-03-27T01:28:12.994Z,38.84
2023-03-27T01:33:38.731Z,38.52
2023-03-27T01:39:11.511Z,37.64
2023-03-27T01:44:16.781Z,37.60
2023-03-27T01:49:18.619Z,37.51
2023-03-27T01:54:25.080Z,37.23
2023-03-27T01:59:28.334Z,37.19
2023-03-27T02:04:35.124Z,37.21
2023-03-27T02:09:41.782Z,37.44
2023-03-27T02:14:46.297Z,37.71
2023-03-27T02:19:49.937Z,37.93
2023-03-27T02:24:51.827Z,38.60
2023-03-27T02:30:00.869Z,39.47
2023-03-27T02:35:11.080Z,39.42
2023-03-27T02:40:22.914Z,39.35
2023-03-27T02:45:32.286Z,38.34
2023-03-27T02:50:37.364Z,38.23
2023-03-27T02:55:47.265Z,38.27
2023-03-27T03:00:49.277Z,40.29
2023-03-27T03:06:07.233Z,40.45
2023-03-27T03:11:10.349Z,40.61
2023-03-27T03:16:10.541Z,40.63
2023-03-27T03:21:09.611Z,39.68
2023-03-27T03:26:09.836Z,39.24
2023-03-27T03:31:18.382Z,38.66
2023-03-27T03:36:17.310Z,37.99
2023-03-27T03:41:17.704Z,37.67
2023-03-27T03:46:16.558Z,37.69
2023-03-27T03:51:15.337Z,37.96
2023-03-27T03:56:14.148Z,36.98
2023-03-27T04:01:14.291Z,37.01
2023-03-27T04:06:23.235Z,36.80
2023-03-27T04:11:22.400Z,37.51
2023-03-27T04:16:51.410Z,37.71
2023-03-27T04:21:56.340Z,38.18
2023-03-27T04:26:55.411Z,38.18
2023-03-27T04:32:11.851Z,39.01
2023-03-27T04:37:13.902Z,38.90
2023-03-27T04:42:24.239Z,39.19
2023-03-27T04:47:25.466Z,39.34
2023-03-27T04:52:33.644Z,39.68
2023-03-27T04:57:33.560Z,39.99
2023-03-27T05:02:34.948Z,39.86
2023-03-27T05:07:40.396Z,40.29
2023-03-27T05:12:44.485Z,39.89
2023-03-27T05:17:53.262Z,39.91
2023-03-27T05:22:55.111Z,39.83
2023-03-27T05:28:03.010Z,40.09
2023-03-27T05:33:07.879Z,40.87
2023-03-27T05:38:08.324Z,42.13
2023-03-27T05:43:12.484Z,42.16
2023-03-27T05:48:12.899Z,42.98
2023-03-27T05:53:14.075Z,42.53
2023-03-27T05:58:22.168Z,42.94
2023-03-27T06:03:24.458Z,43.58
2023-03-27T06:08:33.772Z,44.44
2023-03-27T06:13:33.078Z,44.32
2023-03-27T06:18:39.299Z,44.50
2023-03-27T06:23:38.605Z,45.11
2023-03-27T06:28:42.678Z,45.17
2023-03-27T06:33:44.445Z,46.04
2023-03-27T06:38:57.735Z,46.86
2023-03-27T06:43:56.576Z,46.81
2023-03-27T06:49:17.146Z,46.27
2023-03-27T06:54:18.316Z,45.87
2023-03-27T06:59:21.749Z,45.19
2023-03-27T07:04:28.419Z,45.43
2023-03-27T07:09:50.386Z,44.74
2023-03-27T07:14:57.897Z,44.67
2023-03-27T07:20:01.308Z,43.04
2023-03-27T07:25:00.549Z,43.08
2023-03-27T07:30:12.250Z,42.05
2023-03-27T07:35:15.086Z,41.23
2023-03-27T07:40:14.466Z,41.02
2023-03-27T07:45:22.615Z,40.62
2023-03-27T07:50:25.556Z,40.22
2023-03-27T07:55:24.618Z,39.17
2023-03-27T08:00:35.462Z,38.38
2023-03-27T08:05:54.606Z,38.31
2023-03-27T08:10:57.042Z,37.48
2023-03-27T08:16:04.613Z,36.40
2023-03-27T08:21:07.077Z,36.40
2023-03-27T08:26:07.313Z,36.29
2023-03-27T08:31:18.520Z,35.34
2023-03-27T08:36:20.235Z,34.53
2023-03-27T08:41:32.000Z,34.74
2023-03-27T08:46:46.861Z,34.07
2023-03-27T08:51:53.257Z,34.37
2023-03-27T08:56:52.852Z,34.23
2023-03-27T09:01:59.842Z,33.06
2023-03-27T09:07:05.181Z,32.99
2023-03-27T09:12:21.646Z,32.57
2023-03-27T09:17:24.773Z,32.99
2023-03-27T09:22:40.981Z,32.22
2023-03-27T09:28:23.637Z,29.88
2023-03-27T09:33:33.687Z,29.41
2023-03-27T09:38:38.565Z,28.92
2023-03-27T09:43:50.809Z,28.32
2023-03-27T09:48:58.162Z,28.68
2023-03-27T09:54:01.345Z,27.36
2023-03-27T09:59:10.421Z,26.63
2023-03-27T10:04:19.890Z,26.31
2023-03-27T10:09:27.694Z,25.89
2023-03-27T10:14:38.277Z,26.45
2023-03-27T10:19:42.305Z,26.19
2023-03-27T10:24:48.216Z,26.79
2023-03-27T10:30:29.331Z,26.72
2023-03-27T10:35:45.409Z,26.19
2023-03-27T10:40:53.564Z,27.18
2023-03-27T10:46:07.280Z,26.74
2023-03-27T10:51:28.406Z,27.25
2023-03-27T10:56:43.943Z,27.25
2023-03-27T11:01:47.564Z,27.89
2023-03-27T11:06:50.147Z,27.45
2023-03-27T11:11:55.375Z,27.12
2023-03-27T11:16:59.667Z,26.78
2023-03-27T11:22:28.961Z,27.56
2023-03-27T11:27:37.037Z,27.97
2023-03-27T11:32:44.894Z,29.23
2023-03-27T11:37:49.961Z,30.29
2023-03-27T11:42:52.220Z,30.40
2023-03-27T11:48:20.671Z,30.40
2023-03-27T11:53:43.903Z,31.57
2023-03-27T11:58:59.909Z,32.31
2023-03-27T12:04:31.108Z,33.14
2023-03-27T12:09:57.060Z,33.53
2023-03-27T12:15:51.915Z,33.62
2023-03-27T12:21:07.838Z,33.37
2023-03-27T12:26:26.100Z,33.69
2023-03-27T12:31:51.318Z,34.66
2023-03-27T12:36:52.445Z,33.32
2023-03-27T12:41:57.637Z,35.42
2023-03-27T12:47:18.728Z,35.74
2023-03-27T12:52:19.386Z,38.04
2023-03-27T12:57:23.483Z,42.97
2023-03-27T13:03:00.370Z,44.96
2023-03-27T13:08:22.934Z,44.53
2023-03-27T13:14:33.296Z,45.01
2023-03-27T13:19:44.847Z,43.94
2023-03-27T13:25:08.732Z,44.58
2023-03-27T13:30:41.310Z,45.88
2023-03-27T13:36:07.629Z,48.44
2023-03-27T13:41:40.206Z,47.62
2023-03-27T13:46:53.322Z,47.49
2023-03-27T13:52:23.820Z,47.72
2023-03-27T13:57:40.047Z,48.00
2023-03-27T14:03:19.323Z,49.45
2023-03-27T14:08:36.057Z,52.36
2023-03-27T14:14:09.959Z,51.25
2023-03-27T14:19:29.680Z,51.91
2023-03-27T14:24:38.704Z,52.23
2023-03-27T14:30:07.564Z,51.79
2023-03-27T14:35:27.521Z,52.46
2023-03-27T14:40:39.441Z,52.38
2023-03-27T14:45:42.059Z,52.35
2023-03-27T14:50:42.737Z,52.28
2023-03-27T14:55:45.221Z,53.23
2023-03-27T15:01:23.392Z,53.23
2023-03-27T15:06:29.480Z,51.90
2023-03-27T15:11:38.482Z,51.81
2023-03-27T15:16:56.052Z,52.71
2023-03-27T15:22:02.294Z,51.95
2023-03-27T15:27:06.498Z,52.45
2023-03-27T15:32:09.705Z,51.58
2023-03-27T15:37:15.265Z,51.24
2023-03-27T15:42:16.739Z,51.22
2023-03-27T15:47:26.233Z,51.16
2023-03-27T15:52:32.873Z,51.98
2023-03-27T15:57:33.180Z,52.58
2023-03-27T16:02:33.024Z,52.51
2023-03-27T16:07:43.888Z,53.85
2023-03-27T16:12:54.888Z,54.62
2023-03-27T16:17:56.123Z,54.97
2023-03-27T16:22:57.281Z,55.41
2023-03-27T16:28:00.709Z,56.78
2023-03-27T16:33:00.620Z,57.62
2023-03-27T16:37:59.842Z,60.34
2023-03-27T16:43:00.720Z,63.74
2023-03-27T16:47:59.637Z,66.89
2023-03-27T16:52:58.900Z,70.23
2023-03-27T16:57:59.393Z,68.80
2023-03-27T17:02:58.436Z,68.90
2023-03-27T17:07:59.569Z,68.57
2023-03-27T17:13:00.497Z,66.75
2023-03-27T17:18:02.393Z,65.52
2023-03-27T17:23:01.527Z,67.25
2023-03-27T17:28:02.043Z,67.05
2023-03-27T17:33:01.015Z,66.82
2023-03-27T17:38:00.184Z,65.62
2023-03-27T17:42:59.145Z,66.67
2023-03-27T17:47:59.642Z,66.60
2023-03-27T17:52:58.912Z,68.55
2023-03-27T17:58:08.770Z,69.10
2023-03-27T18:03:10.598Z,69.58
2023-03-27T18:08:11.773Z,70.85
2023-03-27T18:13:11.071Z,71.00
2023-03-27T18:18:11.582Z,73.89
2023-03-27T18:23:10.660Z,75.23
2023-03-27T18:28:11.672Z,75.74
2023-03-27T18:33:12.521Z,76.82
2023-03-27T18:38:14.453Z,78.73
2023-03-27T18:43:13.762Z,82.48
2023-03-27T18:48:15.101Z,80.27
2023-03-27T18:53:14.788Z,82.89
2023-03-27T18:58:13.694Z,82.16
2023-03-27T19:03:18.013Z,80.55
2023-03-27T19:08:17.341Z,82.89
2023-03-27T19:13:17.280Z,80.48
2023-03-27T19:18:43.687Z,81.60
2023-03-27T19:23:49.851Z,81.84
2023-03-27T19:28:52.940Z,80.89
2023-03-27T19:33:53.095Z,82.88
2023-03-27T19:38:52.200Z,83.68
2023-03-27T19:43:51.834Z,84.95
2023-03-27T19:48:53.809Z,83.09
2023-03-27T19:54:02.759Z,83.52
2023-03-27T19:59:09.762Z,84.06
2023-03-27T20:04:14.899Z,83.47
2023-03-27T20:09:14.744Z,84.40
2023-03-27T20:14:14.022Z,84.70
2023-03-27T20:19:16.813Z,85.08
2023-03-27T20:24:17.456Z,84.15
2023-03-27T20:29:23.154Z,84.85
2023-03-27T20:34:24.149Z,83.10
2023-03-27T20:39:23.108Z,82.27
2023-03-27T20:44:22.055Z,81.98
2023-03-27T20:54:31.217Z,80.17
2023-03-27T20:59:30.792Z,80.94
2023-03-27T21:04:31.735Z,82.67
2023-03-27T21:09:31.095Z,80.52
2023-03-27T21:14:29.992Z,79.93
2023-03-27T21:19:30.321Z,78.41
2023-03-27T21:24:29.132Z,80.00
2023-03-27T21:29:28.313Z,79.88
2023-03-27T21:34:27.443Z,79.92
2023-03-27T21:39:27.666Z,79.11
2023-03-27T21:44:26.628Z,79.16
2023-03-27T21:49:25.752Z,78.36
2023-03-27T21:54:24.670Z,78.05
2023-03-27T21:59:25.315Z,79.03
2023-03-27T22:04:24.770Z,79.12
2023-03-27T22:09:23.739Z,79.57
2023-03-27T22:14:22.458Z,80.03
2023-03-27T22:19:22.764Z,79.00
2023-03-27T22:24:21.776Z,78.59
2023-03-27T22:29:20.635Z,77.54
2023-03-27T22:34:19.753Z,79.34
2023-03-27T22:39:19.876Z,80.66
2023-03-27T22:44:18.703Z,80.52
2023-03-27T22:49:17.466Z,81.64
2023-03-27T22:54:16.265Z,80.92
2023-03-27T22:59:17.466Z,80.19
2023-03-27T23:04:16.217Z,80.44
2023-03-27T23:09:15.051Z,79.84
2023-03-27T23:14:14.487Z,80.24
2023-03-27T23:19:14.632Z,80.66
2023-03-27T23:24:13.471Z,80.51
2023-03-27T23:29:12.184Z,81.12
2023-03-27T23:34:11.004Z,80.12
2023-03-27T23:39:11.203Z,80.29
2023-03-27T23:44:10.006Z,80.74
2023-03-27T23:49:08.687Z,76.96
2023-03-27T23:54:07.484Z,75.71
2023-03-27T23:59:07.690Z,76.18
